sensor_id;sensor_type;location;lat;lon;timestamp;pressure;altitude;pressure_sealevel;temperature;humidity
76024;BME280;64719;52.124;6.226;2023-03-04T00:01:03;102697.50;;;5.43;77.31
76024;BME280;64719;52.124;6.226;2023-03-04T00:03:30;102699.63;;;5.39;77.76
76024;BME280;64719;52.124;6.226;2023-03-04T00:05:56;102700.94;;;5.35;77.93
76024;BME280;64719;52.124;6.226;2023-03-04T00:08:23;102703.34;;;5.38;77.84
76024;BME280;64719;52.124;6.226;2023-03-04T00:10:49;102702.88;;;5.43;77.30
76024;BME280;64719;52.124;6.226;2023-03-04T00:13:16;102705.56;;;5.43;77.32
76024;BME280;64719;52.124;6.226;2023-03-04T00:15:44;102702.72;;;5.44;77.33
76024;BME280;64719;52.124;6.226;2023-03-04T00:18:12;102708.81;;;5.46;76.39
76024;BME280;64719;52.124;6.226;2023-03-04T00:20:39;102711.81;;;5.43;76.58
76024;BME280;64719;52.124;6.226;2023-03-04T00:23:05;102700.47;;;5.40;77.17
76024;BME280;64719;52.124;6.226;2023-03-04T00:25:32;102706.56;;;5.42;76.98
76024;BME280;64719;52.124;6.226;2023-03-04T00:27:58;102709.94;;;5.44;76.91
76024;BME280;64719;52.124;6.226;2023-03-04T00:30:25;102712.25;;;5.39;76.93
76024;BME280;64719;52.124;6.226;2023-03-04T00:32:52;102707.03;;;5.37;77.63
76024;BME280;64719;52.124;6.226;2023-03-04T00:35:20;102700.94;;;5.35;77.65
76024;BME280;64719;52.124;6.226;2023-03-04T00:37:46;102697.53;;;5.33;77.91
76024;BME280;64719;52.124;6.226;2023-03-04T00:40:13;102700.25;;;5.33;78.43
76024;BME280;64719;52.124;6.226;2023-03-04T00:42:39;102704.34;;;5.37;78.39
76024;BME280;64719;52.124;6.226;2023-03-04T00:45:07;102691.03;;;5.36;78.76
76024;BME280;64719;52.124;6.226;2023-03-04T00:47:34;102691.19;;;5.34;78.17
76024;BME280;64719;52.124;6.226;2023-03-04T00:50:01;102685.09;;;5.32;79.05
76024;BME280;64719;52.124;6.226;2023-03-04T00:52:29;102682.72;;;5.29;79.41
76024;BME280;64719;52.124;6.226;2023-03-04T00:54:55;102688.09;;;5.29;79.08
76024;BME280;64719;52.124;6.226;2023-03-04T00:57:21;102687.50;;;5.35;78.63
76024;BME280;64719;52.124;6.226;2023-03-04T00:59:48;102697.09;;;5.38;78.79
76024;BME280;64719;52.124;6.226;2023-03-04T01:02:15;102696.13;;;5.39;77.62
76024;BME280;64719;52.124;6.226;2023-03-04T01:04:41;102686.00;;;5.41;77.32
76024;BME280;64719;52.124;6.226;2023-03-04T01:07:08;102695.66;;;5.43;77.82
76024;BME280;64719;52.124;6.226;2023-03-04T01:09:36;102699.47;;;5.41;77.88
76024;BME280;64719;52.124;6.226;2023-03-04T01:12:03;102698.97;;;5.37;78.00
76024;BME280;64719;52.124;6.226;2023-03-04T01:14:29;102694.03;;;5.33;78.76
76024;BME280;64719;52.124;6.226;2023-03-04T01:16:56;102694.84;;;5.33;78.47
76024;BME280;64719;52.124;6.226;2023-03-04T01:19:22;102696.56;;;5.34;79.23
76024;BME280;64719;52.124;6.226;2023-03-04T01:21:49;102690.19;;;5.35;78.51
76024;BME280;64719;52.124;6.226;2023-03-04T01:24:15;102687.03;;;5.40;78.37
76024;BME280;64719;52.124;6.226;2023-03-04T01:26:43;102691.56;;;5.39;77.86
76024;BME280;64719;52.124;6.226;2023-03-04T01:29:10;102688.03;;;5.39;77.81
76024;BME280;64719;52.124;6.226;2023-03-04T01:31:36;102691.84;;;5.36;78.23
76024;BME280;64719;52.124;6.226;2023-03-04T01:34:03;102688.50;;;5.34;78.69
76024;BME280;64719;52.124;6.226;2023-03-04T01:36:29;102691.50;;;5.31;79.01
76024;BME280;64719;52.124;6.226;2023-03-04T01:38:56;102678.03;;;5.31;79.33
76024;BME280;64719;52.124;6.226;2023-03-04T01:41:25;102682.56;;;5.31;79.13
76024;BME280;64719;52.124;6.226;2023-03-04T01:43:54;102673.16;;;5.35;78.19
76024;BME280;64719;52.124;6.226;2023-03-04T01:46:21;102678.41;;;5.36;77.92
76024;BME280;64719;52.124;6.226;2023-03-04T01:48:47;102666.09;;;5.34;78.80
76024;BME280;64719;52.124;6.226;2023-03-04T01:51:15;102670.94;;;5.30;78.54
76024;BME280;64719;52.124;6.226;2023-03-04T01:53:43;102672.66;;;5.31;78.95
76024;BME280;64719;52.124;6.226;2023-03-04T01:56:15;102663.03;;;5.29;79.15
76024;BME280;64719;52.124;6.226;2023-03-04T01:58:44;102660.88;;;5.32;79.10
76024;BME280;64719;52.124;6.226;2023-03-04T02:01:13;102654.28;;;5.27;78.54
76024;BME280;64719;52.124;6.226;2023-03-04T02:03:39;102637.28;;;5.26;77.58
76024;BME280;64719;52.124;6.226;2023-03-04T02:06:06;102655.50;;;5.32;77.32
76024;BME280;64719;52.124;6.226;2023-03-04T02:08:33;102658.19;;;5.32;77.27
76024;BME280;64719;52.124;6.226;2023-03-04T02:11:00;102654.63;;;5.32;77.78
76024;BME280;64719;52.124;6.226;2023-03-04T02:13:26;102656.09;;;5.26;77.96
76024;BME280;64719;52.124;6.226;2023-03-04T02:15:53;102654.56;;;5.24;78.04
76024;BME280;64719;52.124;6.226;2023-03-04T02:18:23;102650.03;;;5.24;77.90
76024;BME280;64719;52.124;6.226;2023-03-04T02:20:59;102642.09;;;5.23;78.62
76024;BME280;64719;52.124;6.226;2023-03-04T02:23:32;102641.94;;;5.24;78.72
76024;BME280;64719;52.124;6.226;2023-03-04T02:26:15;102640.66;;;5.28;77.75
76024;BME280;64719;52.124;6.226;2023-03-04T02:28:43;102644.47;;;5.26;78.12
76024;BME280;64719;52.124;6.226;2023-03-04T02:31:23;102630.50;;;5.22;78.38
76024;BME280;64719;52.124;6.226;2023-03-04T02:33:51;102633.88;;;5.24;77.86
76024;BME280;64719;52.124;6.226;2023-03-04T02:36:18;102635.75;;;5.24;78.52
76024;BME280;64719;52.124;6.226;2023-03-04T02:38:44;102629.81;;;5.20;78.30
76024;BME280;64719;52.124;6.226;2023-03-04T02:41:11;102635.34;;;5.19;78.24
76024;BME280;64719;52.124;6.226;2023-03-04T02:43:40;102632.66;;;5.19;78.85
76024;BME280;64719;52.124;6.226;2023-03-04T02:46:11;102628.13;;;5.19;79.03
76024;BME280;64719;52.124;6.226;2023-03-04T02:48:38;102621.03;;;5.18;78.15
76024;BME280;64719;52.124;6.226;2023-03-04T02:51:05;102619.19;;;5.19;78.54
76024;BME280;64719;52.124;6.226;2023-03-04T02:53:31;102620.06;;;5.19;77.81
76024;BME280;64719;52.124;6.226;2023-03-04T02:55:58;102612.81;;;5.20;78.04
76024;BME280;64719;52.124;6.226;2023-03-04T02:58:24;102615.03;;;5.24;77.04
76024;BME280;64719;52.124;6.226;2023-03-04T03:00:52;102606.66;;;5.27;77.50
76024;BME280;64719;52.124;6.226;2023-03-04T03:03:19;102604.28;;;5.24;77.66
76024;BME280;64719;52.124;6.226;2023-03-04T03:05:45;102612.81;;;5.20;77.73
76024;BME280;64719;52.124;6.226;2023-03-04T03:08:12;102603.22;;;5.17;78.19
76024;BME280;64719;52.124;6.226;2023-03-04T03:10:39;102610.13;;;5.20;78.24
76024;BME280;64719;52.124;6.226;2023-03-04T03:13:05;102601.22;;;5.19;78.08
76024;BME280;64719;52.124;6.226;2023-03-04T03:15:32;102606.91;;;5.16;78.07
76024;BME280;64719;52.124;6.226;2023-03-04T03:18:00;102607.88;;;5.15;77.80
76024;BME280;64719;52.124;6.226;2023-03-04T03:20:26;102596.81;;;5.18;77.63
76024;BME280;64719;52.124;6.226;2023-03-04T03:22:53;102596.81;;;5.18;78.67
76024;BME280;64719;52.124;6.226;2023-03-04T03:25:19;102593.97;;;5.20;78.59
76024;BME280;64719;52.124;6.226;2023-03-04T03:27:46;102590.00;;;5.24;77.85
76024;BME280;64719;52.124;6.226;2023-03-04T03:30:13;102586.28;;;5.25;77.29
76024;BME280;64719;52.124;6.226;2023-03-04T03:32:40;102578.69;;;5.20;77.62
76024;BME280;64719;52.124;6.226;2023-03-04T03:35:08;102581.38;;;5.20;77.45
76024;BME280;64719;52.124;6.226;2023-03-04T03:37:35;102583.66;;;5.15;77.98
76024;BME280;64719;52.124;6.226;2023-03-04T03:40:02;102584.69;;;5.14;78.28
76024;BME280;64719;52.124;6.226;2023-03-04T03:42:29;102579.47;;;5.13;78.13
76024;BME280;64719;52.124;6.226;2023-03-04T03:44:55;102578.44;;;5.14;77.84
76024;BME280;64719;52.124;6.226;2023-03-04T03:47:22;102575.75;;;5.14;78.10
76024;BME280;64719;52.124;6.226;2023-03-04T03:49:49;102582.84;;;5.15;78.89
76024;BME280;64719;52.124;6.226;2023-03-04T03:52:16;102585.00;;;5.11;79.38
76024;BME280;64719;52.124;6.226;2023-03-04T03:54:43;102578.59;;;5.12;78.54
76024;BME280;64719;52.124;6.226;2023-03-04T03:57:09;102576.91;;;5.11;78.82
76024;BME280;64719;52.124;6.226;2023-03-04T03:59:36;102573.75;;;5.16;78.91
76024;BME280;64719;52.124;6.226;2023-03-04T04:02:02;102579.69;;;5.19;78.51
76024;BME280;64719;52.124;6.226;2023-03-04T04:04:29;102580.16;;;5.15;79.38
76024;BME280;64719;52.124;6.226;2023-03-04T04:06:55;102582.16;;;5.13;78.70
76024;BME280;64719;52.124;6.226;2023-03-04T04:09:23;102577.63;;;5.13;78.61
76024;BME280;64719;52.124;6.226;2023-03-04T04:11:50;102583.13;;;5.12;79.17
76024;BME280;64719;52.124;6.226;2023-03-04T04:14:16;102587.69;;;5.11;79.14
76024;BME280;64719;52.124;6.226;2023-03-04T04:16:43;102585.00;;;5.11;79.95
76024;BME280;64719;52.124;6.226;2023-03-04T04:19:15;102584.13;;;5.11;80.27
76024;BME280;64719;52.124;6.226;2023-03-04T04:21:42;102583.28;;;5.10;80.05
76024;BME280;64719;52.124;6.226;2023-03-04T04:24:08;102588.00;;;5.08;80.65
76024;BME280;64719;52.124;6.226;2023-03-04T04:26:36;102581.91;;;5.06;80.92
76024;BME280;64719;52.124;6.226;2023-03-04T04:29:03;102585.31;;;5.08;80.36
76024;BME280;64719;52.124;6.226;2023-03-04T04:31:29;102579.06;;;5.08;81.31
76024;BME280;64719;52.124;6.226;2023-03-04T04:33:56;102588.81;;;5.09;80.77
76024;BME280;64719;52.124;6.226;2023-03-04T04:36:22;102585.44;;;5.07;81.15
76024;BME280;64719;52.124;6.226;2023-03-04T04:38:49;102590.13;;;5.05;82.11
76024;BME280;64719;52.124;6.226;2023-03-04T04:41:18;102579.81;;;5.00;81.75
76024;BME280;64719;52.124;6.226;2023-03-04T04:43:47;102579.81;;;5.00;82.39
76024;BME280;64719;52.124;6.226;2023-03-04T04:46:13;102590.44;;;5.02;82.25
76024;BME280;64719;52.124;6.226;2023-03-04T04:48:40;102585.22;;;5.00;83.25
76024;BME280;64719;52.124;6.226;2023-03-04T04:51:07;102587.75;;;5.02;83.66
76024;BME280;64719;52.124;6.226;2023-03-04T04:53:34;102592.56;;;4.98;83.70
76024;BME280;64719;52.124;6.226;2023-03-04T04:56:07;102579.97;;;4.99;83.25
76024;BME280;64719;52.124;6.226;2023-03-04T04:58:35;102585.50;;;4.97;83.44
76024;BME280;64719;52.124;6.226;2023-03-04T05:01:03;102583.97;;;4.95;83.84
76024;BME280;64719;52.124;6.226;2023-03-04T05:03:30;102584.13;;;4.93;84.19
76024;BME280;64719;52.124;6.226;2023-03-04T05:05:57;102585.97;;;4.93;83.38
76024;BME280;64719;52.124;6.226;2023-03-04T05:08:23;102593.03;;;4.94;84.15
76024;BME280;64719;52.124;6.226;2023-03-04T05:10:51;102579.59;;;4.94;83.74
76024;BME280;64719;52.124;6.226;2023-03-04T05:13:17;102591.19;;;4.94;83.98
76024;BME280;64719;52.124;6.226;2023-03-04T05:15:44;102601.41;;;4.91;83.69
76024;BME280;64719;52.124;6.226;2023-03-04T05:18:13;102592.34;;;4.92;83.35
76024;BME280;64719;52.124;6.226;2023-03-04T05:20:39;102604.94;;;4.91;83.38
76024;BME280;64719;52.124;6.226;2023-03-04T05:23:06;102591.50;;;4.91;84.18
76024;BME280;64719;52.124;6.226;2023-03-04T05:25:32;102591.81;;;4.88;84.80
76024;BME280;64719;52.124;6.226;2023-03-04T05:27:59;102595.19;;;4.90;83.99
76024;BME280;64719;52.124;6.226;2023-03-04T05:30:26;102593.63;;;4.88;83.90
76024;BME280;64719;52.124;6.226;2023-03-04T05:32:52;102596.47;;;4.86;84.10
76024;BME280;64719;52.124;6.226;2023-03-04T05:35:20;102587.75;;;4.84;84.22
76024;BME280;64719;52.124;6.226;2023-03-04T05:37:47;102580.66;;;4.83;84.33
76024;BME280;64719;52.124;6.226;2023-03-04T05:40:13;102586.72;;;4.85;84.06
76024;BME280;64719;52.124;6.226;2023-03-04T05:42:40;102581.19;;;4.87;84.36
76024;BME280;64719;52.124;6.226;2023-03-04T05:45:07;102574.81;;;4.88;83.60
76024;BME280;64719;52.124;6.226;2023-03-04T05:47:34;102584.75;;;4.87;84.33
76024;BME280;64719;52.124;6.226;2023-03-04T05:50:00;102571.31;;;4.87;83.88
76024;BME280;64719;52.124;6.226;2023-03-04T05:52:28;102571.31;;;4.87;84.20
76024;BME280;64719;52.124;6.226;2023-03-04T05:54:55;102572.53;;;4.93;82.89
76024;BME280;64719;52.124;6.226;2023-03-04T05:57:21;102576.22;;;4.92;83.28
76024;BME280;64719;52.124;6.226;2023-03-04T05:59:48;102579.88;;;4.91;83.04
76024;BME280;64719;52.124;6.226;2023-03-04T06:02:14;102582.81;;;4.97;83.20
76024;BME280;64719;52.124;6.226;2023-03-04T06:04:41;102596.56;;;4.94;82.53
76024;BME280;64719;52.124;6.226;2023-03-04T06:07:07;102584.44;;;4.90;83.73
76024;BME280;64719;52.124;6.226;2023-03-04T06:09:35;102594.19;;;4.91;83.75
76024;BME280;64719;52.124;6.226;2023-03-04T06:12:02;102599.56;;;4.91;82.77
76024;BME280;64719;52.124;6.226;2023-03-04T06:14:28;102592.34;;;4.92;82.79
76024;BME280;64719;52.124;6.226;2023-03-04T06:16:55;102595.03;;;4.92;83.31
76024;BME280;64719;52.124;6.226;2023-03-04T06:19:21;102595.19;;;4.90;83.19
76024;BME280;64719;52.124;6.226;2023-03-04T06:21:48;102586.28;;;4.90;83.37
76024;BME280;64719;52.124;6.226;2023-03-04T06:24:14;102586.38;;;4.98;83.61
76024;BME280;64719;52.124;6.226;2023-03-04T06:26:42;102585.81;;;4.94;83.83
76024;BME280;64719;52.124;6.226;2023-03-04T06:29:09;102597.94;;;4.98;83.09
76024;BME280;64719;52.124;6.226;2023-03-04T06:31:35;102601.91;;;5.04;82.99
76024;BME280;64719;52.124;6.226;2023-03-04T06:34:02;102598.34;;;5.03;83.39
76024;BME280;64719;52.124;6.226;2023-03-04T06:36:29;102605.72;;;5.01;83.59
76024;BME280;64719;52.124;6.226;2023-03-04T06:38:55;102601.75;;;5.05;83.57
76024;BME280;64719;52.124;6.226;2023-03-04T06:41:22;102597.44;;;5.12;83.26
76024;BME280;64719;52.124;6.226;2023-03-04T06:43:52;102610.94;;;5.03;82.79
76024;BME280;64719;52.124;6.226;2023-03-04T06:46:19;102593.81;;;5.04;83.50
76024;BME280;64719;52.124;6.226;2023-03-04T06:48:46;102596.16;;;5.16;83.11
76024;BME280;64719;52.124;6.226;2023-03-04T06:51:12;102603.59;;;5.22;82.97
76024;BME280;64719;52.124;6.226;2023-03-04T06:53:39;102604.81;;;5.28;82.74
76024;BME280;64719;52.124;6.226;2023-03-04T06:56:08;102597.19;;;5.41;82.30
76024;BME280;64719;52.124;6.226;2023-03-04T06:58:35;102606.19;;;5.49;82.16
76024;BME280;64719;52.124;6.226;2023-03-04T07:01:11;102606.72;;;5.53;81.42
76024;BME280;64719;52.124;6.226;2023-03-04T07:03:38;102610.03;;;5.64;81.41
76024;BME280;64719;52.124;6.226;2023-03-04T07:06:05;102605.81;;;5.88;81.48
76024;BME280;64719;52.124;6.226;2023-03-04T07:08:31;102599.84;;;5.76;81.57
76024;BME280;64719;52.124;6.226;2023-03-04T07:10:58;102610.91;;;5.73;82.61
76024;BME280;64719;52.124;6.226;2023-03-04T07:13:24;102601.53;;;5.95;82.40
76024;BME280;64719;52.124;6.226;2023-03-04T07:15:51;102601.22;;;6.06;81.84
76024;BME280;64719;52.124;6.226;2023-03-04T07:18:19;102608.03;;;6.18;81.01
76024;BME280;64719;52.124;6.226;2023-03-04T07:20:46;102599.78;;;6.45;80.25
76024;BME280;64719;52.124;6.226;2023-03-04T07:23:14;102610.34;;;6.38;79.91
76024;BME280;64719;52.124;6.226;2023-03-04T07:25:40;102610.41;;;6.46;79.95
76024;BME280;64719;52.124;6.226;2023-03-04T07:28:07;102613.00;;;6.30;79.65
76024;BME280;64719;52.124;6.226;2023-03-04T07:30:33;102606.25;;;6.26;79.93
76024;BME280;64719;52.124;6.226;2023-03-04T07:33:00;102611.81;;;6.58;79.58
76024;BME280;64719;52.124;6.226;2023-03-04T07:35:28;102608.88;;;6.85;78.32
76024;BME280;64719;52.124;6.226;2023-03-04T07:37:54;102610.66;;;6.77;77.65
76024;BME280;64719;52.124;6.226;2023-03-04T07:40:21;102611.19;;;6.80;77.87
76024;BME280;64719;52.124;6.226;2023-03-04T07:42:48;102620.81;;;6.75;78.11
76024;BME280;64719;52.124;6.226;2023-03-04T07:45:15;102622.44;;;6.68;78.65
76024;BME280;64719;52.124;6.226;2023-03-04T07:47:42;102628.38;;;6.71;78.79
76024;BME280;64719;52.124;6.226;2023-03-04T07:50:09;102627.81;;;6.60;79.49
76024;BME280;64719;52.124;6.226;2023-03-04T07:52:38;102629.00;;;6.65;80.15
76024;BME280;64719;52.124;6.226;2023-03-04T07:55:06;102631.38;;;6.68;80.23
76024;BME280;64719;52.124;6.226;2023-03-04T07:57:32;102621.66;;;6.83;79.54
76024;BME280;64719;52.124;6.226;2023-03-04T07:59:59;102624.34;;;6.83;79.84
76024;BME280;64719;52.124;6.226;2023-03-04T08:02:26;102628.06;;;6.90;80.41
76024;BME280;64719;52.124;6.226;2023-03-04T08:04:52;102627.00;;;6.75;82.25
76024;BME280;64719;52.124;6.226;2023-03-04T08:07:19;102628.16;;;6.65;83.44
76024;BME280;64719;52.124;6.226;2023-03-04T08:09:47;102623.56;;;6.57;83.50
76024;BME280;64719;52.124;6.226;2023-03-04T08:12:13;102616.47;;;6.90;83.25
76024;BME280;64719;52.124;6.226;2023-03-04T08:14:40;102620.69;;;6.92;83.00
76024;BME280;64719;52.124;6.226;2023-03-04T08:17:06;102626.75;;;7.02;83.05
76024;BME280;64719;52.124;6.226;2023-03-04T08:19:34;102612.94;;;7.05;82.38
76024;BME280;64719;52.124;6.226;2023-03-04T08:22:00;102617.19;;;7.24;81.71
76024;BME280;64719;52.124;6.226;2023-03-04T08:24:27;102621.59;;;7.33;81.30
76024;BME280;64719;52.124;6.226;2023-03-04T08:26:55;102621.44;;;7.67;80.18
76024;BME280;64719;52.124;6.226;2023-03-04T08:29:23;102629.91;;;7.72;79.41
76024;BME280;64719;52.124;6.226;2023-03-04T08:31:50;102619.72;;;9.52;75.67
76024;BME280;64719;52.124;6.226;2023-03-04T08:34:19;102629.03;;;9.72;70.63
76024;BME280;64719;52.124;6.226;2023-03-04T08:36:46;102618.22;;;8.58;73.49
76024;BME280;64719;52.124;6.226;2023-03-04T08:39:15;102623.25;;;8.22;74.68
76024;BME280;64719;52.124;6.226;2023-03-04T08:41:42;102620.13;;;8.49;75.32
76024;BME280;64719;52.124;6.226;2023-03-04T08:44:10;102629.06;;;8.96;74.33
76024;BME280;64719;52.124;6.226;2023-03-04T08:46:38;102634.00;;;8.46;73.38
76024;BME280;64719;52.124;6.226;2023-03-04T08:49:05;102627.72;;;8.92;72.79
76024;BME280;64719;52.124;6.226;2023-03-04T08:51:32;102625.69;;;8.94;72.82
76024;BME280;64719;52.124;6.226;2023-03-04T08:54:00;102631.25;;;10.28;69.37
76024;BME280;64719;52.124;6.226;2023-03-04T08:56:27;102628.88;;;9.88;68.92
76024;BME280;64719;52.124;6.226;2023-03-04T08:58:53;102626.47;;;9.93;69.92
76024;BME280;64719;52.124;6.226;2023-03-04T09:01:21;102633.00;;;10.50;67.57
76024;BME280;64719;52.124;6.226;2023-03-04T09:03:49;102629.72;;;9.89;69.16
76024;BME280;64719;52.124;6.226;2023-03-04T09:06:16;102623.09;;;9.54;70.48
76024;BME280;64719;52.124;6.226;2023-03-04T09:08:43;102628.19;;;9.26;70.82
76024;BME280;64719;52.124;6.226;2023-03-04T09:11:11;102620.56;;;9.90;69.45
76024;BME280;64719;52.124;6.226;2023-03-04T09:13:37;102619.81;;;10.76;66.87
76024;BME280;64719;52.124;6.226;2023-03-04T09:16:08;102616.38;;;10.02;67.72
76024;BME280;64719;52.124;6.226;2023-03-04T09:18:37;102625.31;;;9.51;70.06
76024;BME280;64719;52.124;6.226;2023-03-04T09:21:05;102623.81;;;9.25;71.15
76024;BME280;64719;52.124;6.226;2023-03-04T09:23:36;102617.00;;;8.68;72.45
76024;BME280;64719;52.124;6.226;2023-03-04T09:26:13;102620.31;;;8.48;75.59
76024;BME280;64719;52.124;6.226;2023-03-04T09:28:42;102615.47;;;8.11;76.91
76024;BME280;64719;52.124;6.226;2023-03-04T09:31:20;102611.16;;;8.49;76.38
76024;BME280;64719;52.124;6.226;2023-03-04T09:33:49;102608.03;;;8.13;77.59
76024;BME280;64719;52.124;6.226;2023-03-04T09:36:15;102611.59;;;8.30;77.85
76024;BME280;64719;52.124;6.226;2023-03-04T09:38:43;102607.03;;;8.30;78.47
76024;BME280;64719;52.124;6.226;2023-03-04T09:41:14;102615.25;;;8.45;77.18
76024;BME280;64719;52.124;6.226;2023-03-04T09:43:43;102603.22;;;9.16;75.29
76024;BME280;64719;52.124;6.226;2023-03-04T09:46:12;102602.13;;;9.03;74.15
76024;BME280;64719;52.124;6.226;2023-03-04T09:48:43;102599.22;;;10.24;71.92
76024;BME280;64719;52.124;6.226;2023-03-04T09:51:19;102592.91;;;11.38;67.36
76024;BME280;64719;52.124;6.226;2023-03-04T09:53:57;102595.38;;;11.33;66.37
76024;BME280;64719;52.124;6.226;2023-03-04T09:56:25;102596.31;;;9.74;70.61
76024;BME280;64719;52.124;6.226;2023-03-04T09:58:59;102594.44;;;10.26;69.95
76024;BME280;64719;52.124;6.226;2023-03-04T10:01:31;102589.91;;;9.52;70.62
76024;BME280;64719;52.124;6.226;2023-03-04T10:04:05;102588.25;;;9.28;72.26
76024;BME280;64719;52.124;6.226;2023-03-04T10:06:36;102593.69;;;9.20;73.05
76024;BME280;64719;52.124;6.226;2023-03-04T10:09:10;102583.94;;;9.34;73.49
76024;BME280;64719;52.124;6.226;2023-03-04T10:11:44;102595.31;;;9.29;73.63
76024;BME280;64719;52.124;6.226;2023-03-04T10:14:30;102592.94;;;9.12;75.82
76024;BME280;64719;52.124;6.226;2023-03-04T10:17:06;102592.97;;;8.73;78.10
76024;BME280;64719;52.124;6.226;2023-03-04T10:19:43;102599.63;;;8.63;78.23
76024;BME280;64719;52.124;6.226;2023-03-04T10:22:28;102600.16;;;8.50;80.97
76024;BME280;64719;52.124;6.226;2023-03-04T10:24:59;102601.34;;;8.86;80.32
76024;BME280;64719;52.124;6.226;2023-03-04T10:27:28;102589.81;;;8.62;80.34
76024;BME280;64719;52.124;6.226;2023-03-04T10:29:57;102600.31;;;7.86;83.10
76024;BME280;64719;52.124;6.226;2023-03-04T10:32:25;102606.91;;;7.68;85.63
76024;BME280;64719;52.124;6.226;2023-03-04T10:34:52;102595.00;;;8.41;84.64
76024;BME280;64719;52.124;6.226;2023-03-04T10:37:18;102600.19;;;8.81;81.18
76024;BME280;64719;52.124;6.226;2023-03-04T10:39:48;102597.00;;;9.53;77.60
76024;BME280;64719;52.124;6.226;2023-03-04T10:42:30;102592.56;;;9.60;74.68
76024;BME280;64719;52.124;6.226;2023-03-04T10:45:01;102592.41;;;10.57;71.28
76024;BME280;64719;52.124;6.226;2023-03-04T10:47:30;102594.97;;;10.79;68.58
76024;BME280;64719;52.124;6.226;2023-03-04T10:49:58;102588.78;;;11.63;68.58
76024;BME280;64719;52.124;6.226;2023-03-04T10:52:28;102582.81;;;11.74;64.15
76024;BME280;64719;52.124;6.226;2023-03-04T10:54:57;102583.66;;;10.76;65.95
76024;BME280;64719;52.124;6.226;2023-03-04T10:57:33;102578.19;;;10.40;67.14
76024;BME280;64719;52.124;6.226;2023-03-04T11:00:23;102581.00;;;9.21;71.44
76024;BME280;64719;52.124;6.226;2023-03-04T11:02:51;102578.56;;;9.03;71.52
76024;BME280;64719;52.124;6.226;2023-03-04T11:05:20;102580.81;;;8.69;72.96
76024;BME280;64719;52.124;6.226;2023-03-04T11:07:48;102583.31;;;8.40;75.77
76024;BME280;64719;52.124;6.226;2023-03-04T11:10:26;102583.72;;;8.13;77.96
76024;BME280;64719;52.124;6.226;2023-03-04T11:12:58;102587.56;;;8.19;79.77
76024;BME280;64719;52.124;6.226;2023-03-04T11:15:27;102580.28;;;8.35;79.85
76024;BME280;64719;52.124;6.226;2023-03-04T11:17:58;102583.50;;;8.31;80.60
76024;BME280;64719;52.124;6.226;2023-03-04T11:20:32;102586.00;;;8.48;80.39
76024;BME280;64719;52.124;6.226;2023-03-04T11:23:03;102578.94;;;8.70;80.32
76024;BME280;64719;52.124;6.226;2023-03-04T11:25:33;102577.09;;;9.01;78.60
76024;BME280;64719;52.124;6.226;2023-03-04T11:28:02;102574.88;;;9.27;78.16
76024;BME280;64719;52.124;6.226;2023-03-04T11:30:37;102571.66;;;9.01;78.25
76024;BME280;64719;52.124;6.226;2023-03-04T11:33:12;102570.59;;;9.10;78.61
76024;BME280;64719;52.124;6.226;2023-03-04T11:35:49;102570.59;;;10.50;75.26
76024;BME280;64719;52.124;6.226;2023-03-04T11:38:26;102566.03;;;11.50;70.07
76024;BME280;64719;52.124;6.226;2023-03-04T11:40:57;102562.75;;;11.12;70.02
76024;BME280;64719;52.124;6.226;2023-03-04T11:43:29;102566.97;;;10.43;70.85
76024;BME280;64719;52.124;6.226;2023-03-04T11:49:26;102558.94;;;9.84;72.85
76024;BME280;64719;52.124;6.226;2023-03-04T11:51:58;102552.66;;;9.83;71.82
76024;BME280;64719;52.124;6.226;2023-03-04T11:54:31;102548.56;;;10.02;71.18
76024;BME280;64719;52.124;6.226;2023-03-04T11:57:06;102549.16;;;10.12;69.68
76024;BME280;64719;52.124;6.226;2023-03-04T12:00:15;102544.75;;;9.45;71.74
76024;BME280;64719;52.124;6.226;2023-03-04T12:02:50;102553.16;;;8.82;74.53
76024;BME280;64719;52.124;6.226;2023-03-04T12:05:34;102545.94;;;8.44;76.58
76024;BME280;64719;52.124;6.226;2023-03-04T12:08:32;102539.78;;;8.11;80.22
76024;BME280;64719;52.124;6.226;2023-03-04T12:11:05;102540.19;;;7.92;81.80
76024;BME280;64719;52.124;6.226;2023-03-04T12:14:10;102549.16;;;7.69;82.50
76024;BME280;64719;52.124;6.226;2023-03-04T12:17:16;102537.34;;;7.62;81.29
76024;BME280;64719;52.124;6.226;2023-03-04T12:23:02;102534.34;;;8.27;77.60
76024;BME280;64719;52.124;6.226;2023-03-04T12:25:42;102533.31;;;8.36;76.66
76024;BME280;64719;52.124;6.226;2023-03-04T12:28:25;102530.00;;;8.79;74.72
76024;BME280;64719;52.124;6.226;2023-03-04T12:37:03;102535.06;;;8.82;73.30
76024;BME280;64719;52.124;6.226;2023-03-04T12:39:39;102524.31;;;8.44;77.02
76024;BME280;64719;52.124;6.226;2023-03-04T12:42:19;102529.19;;;8.48;78.21
76024;BME280;64719;52.124;6.226;2023-03-04T12:44:53;102522.59;;;8.43;77.77
76024;BME280;64719;52.124;6.226;2023-03-04T12:47:30;102530.97;;;8.25;76.31
76024;BME280;64719;52.124;6.226;2023-03-04T12:50:24;102527.44;;;8.55;75.42
76024;BME280;64719;52.124;6.226;2023-03-04T12:53:00;102525.03;;;9.13;73.82
76024;BME280;64719;52.124;6.226;2023-03-04T12:55:36;102519.78;;;8.89;72.23
76024;BME280;64719;52.124;6.226;2023-03-04T12:58:14;102516.41;;;8.34;73.28
76024;BME280;64719;52.124;6.226;2023-03-04T13:00:47;102506.69;;;8.48;73.55
76024;BME280;64719;52.124;6.226;2023-03-04T13:03:20;102505.13;;;8.53;71.78
76024;BME280;64719;52.124;6.226;2023-03-04T13:06:05;102512.81;;;8.42;71.76
76024;BME280;64719;52.124;6.226;2023-03-04T13:08:41;102499.28;;;8.72;70.14
76024;BME280;64719;52.124;6.226;2023-03-04T13:11:39;102497.09;;;9.36;67.83
76024;BME280;64719;52.124;6.226;2023-03-04T13:14:28;102491.91;;;9.63;67.77
76024;BME280;64719;52.124;6.226;2023-03-04T13:16:56;102490.88;;;9.64;66.77
76024;BME280;64719;52.124;6.226;2023-03-04T13:19:43;102486.38;;;9.57;67.85
76024;BME280;64719;52.124;6.226;2023-03-04T13:22:46;102486.94;;;9.52;63.49
76024;BME280;64719;52.124;6.226;2023-03-04T13:25:35;102486.38;;;9.42;61.55